sensor_id;sensor_type;location;lat;lon;timestamp;P1;durP1;ratioP1;P2;durP2;ratioP2
68938;SDS011;59064;45.294;11.816;2023-03-01T00:01:12;19.00;;;10.40;;
68938;SDS011;59064;45.294;11.816;2023-03-01T00:03:43;22.30;;;12.40;;
68938;SDS011;59064;45.294;11.816;2023-03-01T00:06:08;24.40;;;12.50;;
68938;SDS011;59064;45.294;11.816;2023-03-01T00:08:35;19.30;;;10.10;;
68938;SDS011;59064;45.294;11.816;2023-03-01T00:13:30;24.10;;;12.50;;
68938;SDS011;59064;45.294;11.816;2023-03-01T00:15:56;19.10;;;10.40;;
68938;SDS011;59064;45.294;11.816;2023-03-01T00:18:22;22.70;;;11.00;;
68938;SDS011;59064;45.294;11.816;2023-03-01T00:20:52;19.10;;;10.10;;
68938;SDS011;59064;45.294;11.816;2023-03-01T00:23:20;18.50;;;9.60;;
68938;SDS011;59064;45.294;11.816;2023-03-01T00:25:46;23.90;;;12.40;;
68938;SDS011;59064;45.294;11.816;2023-03-01T00:28:12;19.20;;;9.90;;
68938;SDS011;59064;45.294;11.816;2023-03-01T00:30:38;20.60;;;10.90;;
68938;SDS011;59064;45.294;11.816;2023-03-01T00:33:04;19.10;;;10.20;;
68938;SDS011;59064;45.294;11.816;2023-03-01T00:35:31;19.10;;;11.20;;
68938;SDS011;59064;45.294;11.816;2023-03-01T00:37:58;17.30;;;10.00;;
68938;SDS011;59064;45.294;11.816;2023-03-01T00:40:28;17.60;;;9.00;;
68938;SDS011;59064;45.294;11.816;2023-03-01T00:42:54;18.80;;;9.20;;
68938;SDS011;59064;45.294;11.816;2023-03-01T00:45:20;18.70;;;9.90;;
68938;SDS011;59064;45.294;11.816;2023-03-01T00:47:48;17.30;;;9.20;;
68938;SDS011;59064;45.294;11.816;2023-03-01T00:50:14;16.30;;;8.60;;
68938;SDS011;59064;45.294;11.816;2023-03-01T00:52:40;17.30;;;8.50;;
68938;SDS011;59064;45.294;11.816;2023-03-01T00:55:07;19.20;;;9.50;;
68938;SDS011;59064;45.294;11.816;2023-03-01T00:57:33;18.70;;;9.00;;
68938;SDS011;59064;45.294;11.816;2023-03-01T00:59:59;17.30;;;9.60;;
68938;SDS011;59064;45.294;11.816;2023-03-01T01:02:25;19.10;;;9.90;;
68938;SDS011;59064;45.294;11.816;2023-03-01T01:04:51;17.70;;;9.00;;
68938;SDS011;59064;45.294;11.816;2023-03-01T01:07:17;17.40;;;10.00;;
68938;SDS011;59064;45.294;11.816;2023-03-01T01:09:45;18.80;;;9.30;;
68938;SDS011;59064;45.294;11.816;2023-03-01T01:12:12;17.00;;;8.80;;
68938;SDS011;59064;45.294;11.816;2023-03-01T01:14:37;16.90;;;9.20;;
68938;SDS011;59064;45.294;11.816;2023-03-01T01:17:04;18.80;;;8.80;;
68938;SDS011;59064;45.294;11.816;2023-03-01T01:19:30;19.80;;;8.80;;
68938;SDS011;59064;45.294;11.816;2023-03-01T01:21:56;17.50;;;8.60;;
68938;SDS011;59064;45.294;11.816;2023-03-01T01:24:22;17.10;;;8.90;;
68938;SDS011;59064;45.294;11.816;2023-03-01T01:26:47;15.90;;;7.90;;
68938;SDS011;59064;45.294;11.816;2023-03-01T01:29:14;17.00;;;9.80;;
68938;SDS011;59064;45.294;11.816;2023-03-01T01:31:41;8.80;;;4.50;;
68938;SDS011;59064;45.294;11.816;2023-03-01T01:34:12;16.30;;;8.20;;
68938;SDS011;59064;45.294;11.816;2023-03-01T01:36:40;17.30;;;8.40;;
68938;SDS011;59064;45.294;11.816;2023-03-01T01:39:06;13.00;;;6.20;;
68938;SDS011;59064;45.294;11.816;2023-03-01T01:41:32;13.90;;;7.20;;
68938;SDS011;59064;45.294;11.816;2023-03-01T01:47:04;17.90;;;9.00;;
68938;SDS011;59064;45.294;11.816;2023-03-01T01:49:44;16.50;;;7.80;;
68938;SDS011;59064;45.294;11.816;2023-03-01T01:52:31;15.10;;;6.60;;
68938;SDS011;59064;45.294;11.816;2023-03-01T01:57:43;15.70;;;7.90;;
68938;SDS011;59064;45.294;11.816;2023-03-01T02:00:20;14.00;;;7.90;;
68938;SDS011;59064;45.294;11.816;2023-03-01T02:02:49;14.70;;;7.80;;
68938;SDS011;59064;45.294;11.816;2023-03-01T02:05:50;13.20;;;6.70;;
68938;SDS011;59064;45.294;11.816;2023-03-01T02:08:40;12.50;;;7.20;;
68938;SDS011;59064;45.294;11.816;2023-03-01T02:11:07;15.10;;;7.40;;
68938;SDS011;59064;45.294;11.816;2023-03-01T02:13:35;14.10;;;7.30;;
68938;SDS011;59064;45.294;11.816;2023-03-01T02:16:08;13.20;;;6.40;;
68938;SDS011;59064;45.294;11.816;2023-03-01T02:18:36;18.10;;;8.40;;
68938;SDS011;59064;45.294;11.816;2023-03-01T02:26:57;13.80;;;6.90;;
68938;SDS011;59064;45.294;11.816;2023-03-01T02:29:24;14.40;;;6.20;;
68938;SDS011;59064;45.294;11.816;2023-03-01T02:31:52;15.20;;;8.00;;
68938;SDS011;59064;45.294;11.816;2023-03-01T02:34:23;9.50;;;5.80;;
68938;SDS011;59064;45.294;11.816;2023-03-01T02:39:38;15.50;;;7.90;;
68938;SDS011;59064;45.294;11.816;2023-03-01T02:42:11;14.20;;;7.60;;
68938;SDS011;59064;45.294;11.816;2023-03-01T02:44:40;14.00;;;7.00;;
68938;SDS011;59064;45.294;11.816;2023-03-01T02:47:06;16.30;;;8.40;;
68938;SDS011;59064;45.294;11.816;2023-03-01T02:49:33;15.90;;;7.80;;
68938;SDS011;59064;45.294;11.816;2023-03-01T02:55:06;12.60;;;6.10;;
68938;SDS011;59064;45.294;11.816;2023-03-01T02:57:34;16.60;;;8.60;;
68938;SDS011;59064;45.294;11.816;2023-03-01T03:00:08;15.20;;;7.60;;
68938;SDS011;59064;45.294;11.816;2023-03-01T03:02:44;13.00;;;7.10;;
68938;SDS011;59064;45.294;11.816;2023-03-01T03:05:13;16.60;;;6.60;;
68938;SDS011;59064;45.294;11.816;2023-03-01T03:07:42;12.80;;;6.30;;
68938;SDS011;59064;45.294;11.816;2023-03-01T03:10:22;16.30;;;6.90;;
68938;SDS011;59064;45.294;11.816;2023-03-01T03:12:50;13.50;;;6.60;;
68938;SDS011;59064;45.294;11.816;2023-03-01T03:15:18;13.30;;;7.30;;
68938;SDS011;59064;45.294;11.816;2023-03-01T03:17:46;11.40;;;6.30;;
68938;SDS011;59064;45.294;11.816;2023-03-01T03:20:14;12.30;;;6.20;;
68938;SDS011;59064;45.294;11.816;2023-03-01T03:22:45;16.30;;;6.80;;
68938;SDS011;59064;45.294;11.816;2023-03-01T03:25:13;15.90;;;7.10;;
68938;SDS011;59064;45.294;11.816;2023-03-01T03:27:40;12.40;;;6.40;;
68938;SDS011;59064;45.294;11.816;2023-03-01T03:30:10;11.70;;;6.40;;
68938;SDS011;59064;45.294;11.816;2023-03-01T03:32:43;15.70;;;7.60;;
68938;SDS011;59064;45.294;11.816;2023-03-01T03:37:52;17.30;;;8.70;;
68938;SDS011;59064;45.294;11.816;2023-03-01T03:40:29;14.60;;;7.50;;
68938;SDS011;59064;45.294;11.816;2023-03-01T03:42:56;15.20;;;7.80;;
68938;SDS011;59064;45.294;11.816;2023-03-01T03:45:21;15.30;;;8.00;;
68938;SDS011;59064;45.294;11.816;2023-03-01T03:47:47;13.90;;;6.90;;
68938;SDS011;59064;45.294;11.816;2023-03-01T03:50:14;14.60;;;7.90;;
68938;SDS011;59064;45.294;11.816;2023-03-01T03:52:42;15.20;;;8.50;;
68938;SDS011;59064;45.294;11.816;2023-03-01T03:55:09;11.50;;;6.20;;
68938;SDS011;59064;45.294;11.816;2023-03-01T03:57:40;10.10;;;5.20;;
68938;SDS011;59064;45.294;11.816;2023-03-01T04:00:11;13.50;;;6.10;;
68938;SDS011;59064;45.294;11.816;2023-03-01T04:02:44;14.60;;;8.10;;
68938;SDS011;59064;45.294;11.816;2023-03-01T04:05:12;14.70;;;7.60;;
68938;SDS011;59064;45.294;11.816;2023-03-01T04:07:40;12.30;;;7.00;;
68938;SDS011;59064;45.294;11.816;2023-03-01T04:10:10;22.60;;;8.40;;
68938;SDS011;59064;45.294;11.816;2023-03-01T04:12:38;14.20;;;7.40;;
68938;SDS011;59064;45.294;11.816;2023-03-01T04:15:05;15.00;;;7.50;;
68938;SDS011;59064;45.294;11.816;2023-03-01T04:17:47;16.50;;;7.50;;
68938;SDS011;59064;45.294;11.816;2023-03-01T04:20:18;9.60;;;4.70;;
68938;SDS011;59064;45.294;11.816;2023-03-01T04:22:57;12.30;;;7.00;;
68938;SDS011;59064;45.294;11.816;2023-03-01T04:25:51;15.30;;;8.10;;
68938;SDS011;59064;45.294;11.816;2023-03-01T04:28:31;14.20;;;6.00;;
68938;SDS011;59064;45.294;11.816;2023-03-01T04:31:07;12.70;;;6.50;;
68938;SDS011;59064;45.294;11.816;2023-03-01T04:36:10;15.80;;;7.80;;
68938;SDS011;59064;45.294;11.816;2023-03-01T04:38:38;13.50;;;7.90;;
68938;SDS011;59064;45.294;11.816;2023-03-01T04:41:09;14.80;;;8.40;;
68938;SDS011;59064;45.294;11.816;2023-03-01T04:43:36;18.40;;;8.30;;
68938;SDS011;59064;45.294;11.816;2023-03-01T04:46:07;16.10;;;7.50;;
68938;SDS011;59064;45.294;11.816;2023-03-01T04:48:36;16.60;;;8.30;;
68938;SDS011;59064;45.294;11.816;2023-03-01T04:51:04;18.20;;;8.30;;
68938;SDS011;59064;45.294;11.816;2023-03-01T04:53:31;14.60;;;7.20;;
68938;SDS011;59064;45.294;11.816;2023-03-01T04:55:58;15.40;;;7.70;;
68938;SDS011;59064;45.294;11.816;2023-03-01T04:58:27;15.90;;;7.50;;
68938;SDS011;59064;45.294;11.816;2023-03-01T05:00:53;14.10;;;6.90;;
68938;SDS011;59064;45.294;11.816;2023-03-01T05:03:20;14.00;;;7.10;;
68938;SDS011;59064;45.294;11.816;2023-03-01T05:05:48;13.50;;;6.90;;
68938;SDS011;59064;45.294;11.816;2023-03-01T05:08:16;12.90;;;6.90;;
68938;SDS011;59064;45.294;11.816;2023-03-01T05:10:51;12.40;;;6.50;;
68938;SDS011;59064;45.294;11.816;2023-03-01T05:13:18;11.90;;;6.70;;
68938;SDS011;59064;45.294;11.816;2023-03-01T05:15:55;13.50;;;6.40;;
68938;SDS011;59064;45.294;11.816;2023-03-01T05:18:26;12.40;;;6.80;;
68938;SDS011;59064;45.294;11.816;2023-03-01T05:20:56;13.60;;;6.60;;
68938;SDS011;59064;45.294;11.816;2023-03-01T05:23:30;11.40;;;6.10;;
68938;SDS011;59064;45.294;11.816;2023-03-01T05:26:00;13.50;;;6.40;;
68938;SDS011;59064;45.294;11.816;2023-03-01T05:28:29;15.30;;;6.90;;
68938;SDS011;59064;45.294;11.816;2023-03-01T05:30:56;14.40;;;7.30;;
68938;SDS011;59064;45.294;11.816;2023-03-01T05:33:22;17.00;;;9.40;;
68938;SDS011;59064;45.294;11.816;2023-03-01T05:35:49;16.20;;;7.00;;
68938;SDS011;59064;45.294;11.816;2023-03-01T05:38:17;11.20;;;6.10;;
68938;SDS011;59064;45.294;11.816;2023-03-01T05:40:44;12.60;;;6.30;;
68938;SDS011;59064;45.294;11.816;2023-03-01T05:43:13;11.60;;;5.90;;
68938;SDS011;59064;45.294;11.816;2023-03-01T05:45:40;11.00;;;5.10;;
68938;SDS011;59064;45.294;11.816;2023-03-01T05:48:07;12.90;;;6.10;;
68938;SDS011;59064;45.294;11.816;2023-03-01T05:50:36;11.80;;;6.10;;
68938;SDS011;59064;45.294;11.816;2023-03-01T05:53:26;15.20;;;6.80;;
68938;SDS011;59064;45.294;11.816;2023-03-01T05:55:51;11.00;;;6.60;;
68938;SDS011;59064;45.294;11.816;2023-03-01T05:58:18;10.40;;;5.80;;
68938;SDS011;59064;45.294;11.816;2023-03-01T06:00:46;14.80;;;7.60;;
68938;SDS011;59064;45.294;11.816;2023-03-01T06:03:14;13.50;;;6.90;;
68938;SDS011;59064;45.294;11.816;2023-03-01T06:05:41;10.20;;;5.70;;
68938;SDS011;59064;45.294;11.816;2023-03-01T06:08:08;13.50;;;6.80;;
68938;SDS011;59064;45.294;11.816;2023-03-01T06:10:35;9.90;;;5.60;;
68938;SDS011;59064;45.294;11.816;2023-03-01T06:13:00;10.50;;;5.70;;
68938;SDS011;59064;45.294;11.816;2023-03-01T06:15:26;13.00;;;7.30;;
68938;SDS011;59064;45.294;11.816;2023-03-01T06:17:54;11.40;;;6.70;;
68938;SDS011;59064;45.294;11.816;2023-03-01T06:20:23;14.70;;;6.20;;
68938;SDS011;59064;45.294;11.816;2023-03-01T06:22:51;14.10;;;6.50;;
68938;SDS011;59064;45.294;11.816;2023-03-01T06:25:19;15.20;;;7.30;;
68938;SDS011;59064;45.294;11.816;2023-03-01T06:27:47;12.30;;;5.90;;
68938;SDS011;59064;45.294;11.816;2023-03-01T06:30:15;13.90;;;6.60;;
68938;SDS011;59064;45.294;11.816;2023-03-01T06:32:43;12.50;;;7.00;;
68938;SDS011;59064;45.294;11.816;2023-03-01T06:35:13;11.80;;;6.80;;
68938;SDS011;59064;45.294;11.816;2023-03-01T06:37:42;12.60;;;6.60;;
68938;SDS011;59064;45.294;11.816;2023-03-01T06:40:09;13.40;;;6.70;;
68938;SDS011;59064;45.294;11.816;2023-03-01T06:42:38;12.40;;;6.20;;
68938;SDS011;59064;45.294;11.816;2023-03-01T06:45:05;14.40;;;6.50;;
68938;SDS011;59064;45.294;11.816;2023-03-01T06:47:32;11.70;;;5.90;;
68938;SDS011;59064;45.294;11.816;2023-03-01T06:50:00;14.20;;;7.80;;
68938;SDS011;59064;45.294;11.816;2023-03-01T06:52:26;19.70;;;7.30;;
68938;SDS011;59064;45.294;11.816;2023-03-01T06:54:52;13.80;;;7.20;;
68938;SDS011;59064;45.294;11.816;2023-03-01T06:57:17;12.40;;;6.70;;
68938;SDS011;59064;45.294;11.816;2023-03-01T06:59:43;12.50;;;5.60;;
68938;SDS011;59064;45.294;11.816;2023-03-01T07:02:13;16.80;;;7.00;;
68938;SDS011;59064;45.294;11.816;2023-03-01T07:04:41;13.90;;;6.80;;
68938;SDS011;59064;45.294;11.816;2023-03-01T07:07:07;11.20;;;6.20;;
68938;SDS011;59064;45.294;11.816;2023-03-01T07:09:32;12.80;;;6.70;;
68938;SDS011;59064;45.294;11.816;2023-03-01T07:11:58;10.50;;;5.10;;
68938;SDS011;59064;45.294;11.816;2023-03-01T07:14:24;11.30;;;6.10;;
68938;SDS011;59064;45.294;11.816;2023-03-01T07:16:51;11.20;;;6.20;;
68938;SDS011;59064;45.294;11.816;2023-03-01T07:19:18;11.70;;;5.70;;
68938;SDS011;59064;45.294;11.816;2023-03-01T07:21:43;11.90;;;7.20;;
68938;SDS011;59064;45.294;11.816;2023-03-01T07:24:09;13.00;;;6.70;;
68938;SDS011;59064;45.294;11.816;2023-03-01T07:26:36;11.30;;;6.40;;
68938;SDS011;59064;45.294;11.816;2023-03-01T07:29:03;10.20;;;5.70;;
68938;SDS011;59064;45.294;11.816;2023-03-01T07:31:30;12.20;;;6.80;;
68938;SDS011;59064;45.294;11.816;2023-03-01T07:33:56;13.00;;;6.90;;
68938;SDS011;59064;45.294;11.816;2023-03-01T07:36:24;11.10;;;6.50;;
68938;SDS011;59064;45.294;11.816;2023-03-01T07:38:50;10.70;;;5.70;;
68938;SDS011;59064;45.294;11.816;2023-03-01T07:41:16;13.80;;;7.10;;
68938;SDS011;59064;45.294;11.816;2023-03-01T07:43:42;14.60;;;6.70;;
68938;SDS011;59064;45.294;11.816;2023-03-01T07:46:08;10.40;;;5.00;;
68938;SDS011;59064;45.294;11.816;2023-03-01T07:48:34;10.40;;;5.60;;
68938;SDS011;59064;45.294;11.816;2023-03-01T07:51:00;11.30;;;6.40;;
68938;SDS011;59064;45.294;11.816;2023-03-01T07:53:28;9.60;;;5.90;;
68938;SDS011;59064;45.294;11.816;2023-03-01T07:56:08;12.80;;;6.60;;
68938;SDS011;59064;45.294;11.816;2023-03-01T07:58:45;15.40;;;7.40;;
68938;SDS011;59064;45.294;11.816;2023-03-01T08:01:14;14.10;;;6.40;;
68938;SDS011;59064;45.294;11.816;2023-03-01T08:03:41;10.80;;;5.60;;
68938;SDS011;59064;45.294;11.816;2023-03-01T08:06:10;14.70;;;6.80;;
68938;SDS011;59064;45.294;11.816;2023-03-01T08:08:37;10.90;;;5.40;;
68938;SDS011;59064;45.294;11.816;2023-03-01T08:11:04;10.30;;;5.80;;
68938;SDS011;59064;45.294;11.816;2023-03-01T08:13:32;9.70;;;5.50;;
68938;SDS011;59064;45.294;11.816;2023-03-01T08:16:06;11.70;;;6.20;;
68938;SDS011;59064;45.294;11.816;2023-03-01T08:18:34;9.90;;;5.10;;
68938;SDS011;59064;45.294;11.816;2023-03-01T08:21:07;9.80;;;5.50;;
68938;SDS011;59064;45.294;11.816;2023-03-01T08:23:35;11.30;;;6.00;;
68938;SDS011;59064;45.294;11.816;2023-03-01T08:26:10;5.50;;;3.20;;
68938;SDS011;59064;45.294;11.816;2023-03-01T08:28:37;8.30;;;4.60;;
68938;SDS011;59064;45.294;11.816;2023-03-01T08:31:26;9.20;;;4.80;;
68938;SDS011;59064;45.294;11.816;2023-03-01T08:33:56;8.90;;;5.40;;
68938;SDS011;59064;45.294;11.816;2023-03-01T08:36:29;10.80;;;5.50;;
68938;SDS011;59064;45.294;11.816;2023-03-01T08:38:57;9.40;;;5.00;;
68938;SDS011;59064;45.294;11.816;2023-03-01T08:41:23;9.10;;;5.50;;
68938;SDS011;59064;45.294;11.816;2023-03-01T08:43:49;11.00;;;5.60;;
68938;SDS011;59064;45.294;11.816;2023-03-01T08:46:15;14.00;;;4.50;;
68938;SDS011;59064;45.294;11.816;2023-03-01T08:48:41;10.90;;;4.60;;
68938;SDS011;59064;45.294;11.816;2023-03-01T08:51:16;8.90;;;4.20;;
68938;SDS011;59064;45.294;11.816;2023-03-01T08:53:43;10.00;;;4.40;;
68938;SDS011;59064;45.294;11.816;2023-03-01T08:56:10;10.70;;;4.90;;
68938;SDS011;59064;45.294;11.816;2023-03-01T08:58:36;12.40;;;5.70;;
68938;SDS011;59064;45.294;11.816;2023-03-01T09:01:13;9.70;;;4.70;;
68938;SDS011;59064;45.294;11.816;2023-03-01T09:03:42;7.90;;;4.40;;
68938;SDS011;59064;45.294;11.816;2023-03-01T09:06:09;12.60;;;7.20;;
68938;SDS011;59064;45.294;11.816;2023-03-01T09:08:37;10.20;;;4.80;;
68938;SDS011;59064;45.294;11.816;2023-03-01T09:11:10;6.80;;;3.50;;
68938;SDS011;59064;45.294;11.816;2023-03-01T09:13:37;7.10;;;4.10;;
68938;SDS011;59064;45.294;11.816;2023-03-01T09:16:05;13.10;;;6.20;;
68938;SDS011;59064;45.294;11.816;2023-03-01T09:18:33;14.00;;;7.60;;
68938;SDS011;59064;45.294;11.816;2023-03-01T09:21:05;10.10;;;5.50;;
68938;SDS011;59064;45.294;11.816;2023-03-01T09:23:55;12.00;;;7.30;;
68938;SDS011;59064;45.294;11.816;2023-03-01T09:26:22;8.70;;;4.80;;
68938;SDS011;59064;45.294;11.816;2023-03-01T09:28:50;14.20;;;6.40;;
68938;SDS011;59064;45.294;11.816;2023-03-01T09:31:20;10.30;;;6.70;;
68938;SDS011;59064;45.294;11.816;2023-03-01T09:33:48;12.60;;;4.60;;
68938;SDS011;59064;45.294;11.816;2023-03-01T09:36:18;11.90;;;6.10;;
68938;SDS011;59064;45.294;11.816;2023-03-01T09:38:46;9.20;;;4.20;;
68938;SDS011;59064;45.294;11.816;2023-03-01T09:41:57;8.40;;;5.00;;
68938;SDS011;59064;45.294;11.816;2023-03-01T09:47:28;10.80;;;6.10;;
68938;SDS011;59064;45.294;11.816;2023-03-01T09:50:05;6.50;;;3.00;;
68938;SDS011;59064;45.294;11.816;2023-03-01T09:52:41;13.10;;;5.90;;
68938;SDS011;59064;45.294;11.816;2023-03-01T10:09:40;10.10;;;5.40;;
68938;SDS011;59064;45.294;11.816;2023-03-01T10:12:13;14.70;;;5.70;;
68938;SDS011;59064;45.294;11.816;2023-03-01T10:17:43;10.00;;;4.00;;
68938;SDS011;59064;45.294;11.816;2023-03-01T10:20:46;11.00;;;3.90;;
68938;SDS011;59064;45.294;11.816;2023-03-01T10:23:18;11.40;;;4.60;;
68938;SDS011;59064;45.294;11.816;2023-03-01T10:25:52;9.30;;;5.20;;
68938;SDS011;59064;45.294;11.816;2023-03-01T10:28:47;10.30;;;4.70;;
68938;SDS011;59064;45.294;11.816;2023-03-01T10:31:32;7.70;;;3.80;;
68938;SDS011;59064;45.294;11.816;2023-03-01T10:34:31;8.00;;;3.60;;
68938;SDS011;59064;45.294;11.816;2023-03-01T10:37:12;13.10;;;7.00;;
68938;SDS011;59064;45.294;11.816;2023-03-01T10:39:55;12.00;;;6.50;;
68938;SDS011;59064;45.294;11.816;2023-03-01T10:42:29;13.90;;;6.30;;
68938;SDS011;59064;45.294;11.816;2023-03-01T10:44:56;10.10;;;5.20;;
68938;SDS011;59064;45.294;11.816;2023-03-01T10:47:26;11.30;;;5.90;;
68938;SDS011;59064;45.294;11.816;2023-03-01T10:50:04;10.20;;;6.00;;
68938;SDS011;59064;45.294;11.816;2023-03-01T10:52:42;12.70;;;5.10;;
68938;SDS011;59064;45.294;11.816;2023-03-01T10:55:39;10.10;;;5.00;;
68938;SDS011;59064;45.294;11.816;2023-03-01T10:58:18;10.20;;;5.60;;
68938;SDS011;59064;45.294;11.816;2023-03-01T11:03:13;14.70;;;6.50;;
68938;SDS011;59064;45.294;11.816;2023-03-01T11:05:54;12.70;;;6.20;;
68938;SDS011;59064;45.294;11.816;2023-03-01T11:08:41;12.80;;;6.10;;
68938;SDS011;59064;45.294;11.816;2023-03-01T11:11:26;8.70;;;4.80;;
68938;SDS011;59064;45.294;11.816;2023-03-01T11:14:00;10.70;;;6.00;;
68938;SDS011;59064;45.294;11.816;2023-03-01T11:16:34;14.10;;;6.70;;
68938;SDS011;59064;45.294;11.816;2023-03-01T11:19:13;12.80;;;7.30;;
68938;SDS011;59064;45.294;11.816;2023-03-01T11:21:47;15.50;;;9.30;;
68938;SDS011;59064;45.294;11.816;2023-03-01T11:24:15;11.60;;;6.60;;
68938;SDS011;59064;45.294;11.816;2023-03-01T11:26:46;16.70;;;9.10;;
68938;SDS011;59064;45.294;11.816;2023-03-01T11:29:26;12.30;;;7.60;;
68938;SDS011;59064;45.294;11.816;2023-03-01T11:31:57;15.80;;;8.60;;
68938;SDS011;59064;45.294;11.816;2023-03-01T11:34:40;14.80;;;7.30;;
68938;SDS011;59064;45.294;11.816;2023-03-01T11:37:21;14.80;;;6.50;;
68938;SDS011;59064;45.294;11.816;2023-03-01T11:39:58;12.90;;;7.00;;
68938;SDS011;59064;45.294;11.816;2023-03-01T11:45:23;16.60;;;8.20;;
68938;SDS011;59064;45.294;11.816;2023-03-01T12:14:02;12.40;;;6.40;;
68938;SDS011;59064;45.294;11.816;2023-03-01T12:42:33;19.30;;;6.50;;
68938;SDS011;59064;45.294;11.816;2023-03-01T12:48:11;16.00;;;9.00;;
68938;SDS011;59064;45.294;11.816;2023-03-01T12:50:55;13.90;;;9.10;;
68938;SDS011;59064;45.294;11.816;2023-03-01T12:56:29;15.60;;;7.90;;
68938;SDS011;59064;45.294;11.816;2023-03-01T12:59:43;14.00;;;6.70;;
68938;SDS011;59064;45.294;11.816;2023-03-01T13:02:22;18.10;;;6.40;;
68938;SDS011;59064;45.294;11.816;2023-03-01T13:08:16;13.30;;;5.60;;
68938;SDS011;59064;45.294;11.816;2023-03-01T13:11:07;16.30;;;7.90;;
68938;SDS011;59064;45.294;11.816;2023-03-01T13:13:41;17.20;;;9.60;;
68938;SDS011;59064;45.294;11.816;2023-03-01T13:16:39;17.20;;;8.00;;
68938;SDS011;59064;45.294;11.816;2023-03-01T13:19:18;13.60;;;8.30;;
68938;SDS011;59064;45.294;11.816;2023-03-01T13:21:47;14.10;;;8.10;;
68938;SDS011;59064;45.294;11.816;2023-03-01T13:24:28;14.60;;;9.60;;
68938;SDS011;59064;45.294;11.816;2023-03-01T13:32:20;13.70;;;7.70;;
68938;SDS011;59064;45.294;11.816;2023-03-01T13:35:00;13.40;;;8.40;;
68938;SDS011;59064;45.294;11.816;2023-03-01T13:37:33;14.20;;;8.60;;
68938;SDS011;59064;45.294;11.816;2023-03-01T13:40:07;11.70;;;6.60;;
68938;SDS011;59064;45.294;11.816;2023-03-01T13:42:56;17.70;;;9.00;;
68938;SDS011;59064;45.294;11.816;2023-03-01T13:48:01;13.80;;;9.00;;
68938;SDS011;59064;45.294;11.816;2023-03-01T13:50:35;11.40;;;8.50;;
68938;SDS011;59064;45.294;11.816;2023-03-01T13:53:11;10.30;;;6.00;;
68938;SDS011;59064;45.294;11.816;2023-03-01T13:56:13;13.90;;;8.10;;
68938;SDS011;59064;45.294;11.816;2023-03-01T14:01:30;11.60;;;7.80;;
68938;SDS011;59064;45.294;11.816;2023-03-01T14:03:57;12.60;;;7.20;;
68938;SDS011;59064;45.294;11.816;2023-03-01T14:06:25;19.90;;;9.20;;
68938;SDS011;59064;45.294;11.816;2023-03-01T14:11:52;12.90;;;7.80;;
68938;SDS011;59064;45.294;11.816;2023-03-01T14:17:31;13.10;;;8.30;;
68938;SDS011;59064;45.294;11.816;2023-03-01T14:20:27;17.70;;;10.00;;
68938;SDS011;59064;45.294;11.816;2023-03-01T14:22:59;12.90;;;8.30;;
68938;SDS011;59064;45.294;11.816;2023-03-01T14:25:36;8.60;;;4.80;;
68938;SDS011;59064;45.294;11.816;2023-03-01T14:28:10;10.70;;;4.50;;
68938;SDS011;59064;45.294;11.816;2023-03-01T14:31:00;14.20;;;6.70;;
68938;SDS011;59064;45.294;11.816;2023-03-01T14:33:29;8.90;;;5.00;;
68938;SDS011;59064;45.294;11.816;2023-03-01T14:36:06;8.30;;;4.20;;
68938;SDS011;59064;45.294;11.816;2023-03-01T14:38:46;9.20;;;5.40;;
68938;SDS011;59064;45.294;11.816;2023-03-01T14:41:20;11.20;;;5.60;;
68938;SDS011;59064;45.294;11.816;2023-03-01T14:44:14;8.70;;;4.90;;
68938;SDS011;59064;45.294;11.816;2023-03-01T14:46:44;9.80;;;5.70;;
68938;SDS011;59064;45.294;11.816;2023-03-01T14:49:19;8.10;;;4.20;;
68938;SDS011;59064;45.294;11.816;2023-03-01T14:51:58;7.30;;;3.80;;
68938;SDS011;59064;45.294;11.816;2023-03-01T14:54:43;8.90;;;5.10;;
68938;SDS011;59064;45.294;11.816;2023-03-01T14:57:29;10.80;;;6.90;;
68938;SDS011;59064;45.294;11.816;2023-03-01T14:59:57;9.50;;;5.20;;
68938;SDS011;59064;45.294;11.816;2023-03-01T15:02:28;8.70;;;4.50;;
68938;SDS011;59064;45.294;11.816;2023-03-01T15:04:57;8.60;;;4.40;;
68938;SDS011;59064;45.294;11.816;2023-03-01T15:07:35;11.20;;;5.70;;
68938;SDS011;59064;45.294;11.816;2023-03-01T15:10:06;8.10;;;4.50;;
68938;SDS011;59064;45.294;11.816;2023-03-01T15:12:41;11.30;;;7.40;;
68938;SDS011;59064;45.294;11.816;2023-03-01T15:15:43;10.30;;;7.00;;
68938;SDS011;59064;45.294;11.816;2023-03-01T15:18:20;13.50;;;6.70;;
68938;SDS011;59064;45.294;11.816;2023-03-01T15:20:49;7.30;;;4.20;;
68938;SDS011;59064;45.294;11.816;2023-03-01T15:25:48;10.50;;;7.50;;
68938;SDS011;59064;45.294;11.816;2023-03-01T15:28:30;9.60;;;6.30;;
68938;SDS011;59064;45.294;11.816;2023-03-01T15:31:05;8.30;;;5.70;;
68938;SDS011;59064;45.294;11.816;2023-03-01T15:34:06;9.20;;;6.00;;
68938;SDS011;59064;45.294;11.816;2023-03-01T15:36:45;8.40;;;5.30;;
68938;SDS011;59064;45.294;11.816;2023-03-01T15:41:56;12.30;;;7.30;;
68938;SDS011;59064;45.294;11.816;2023-03-01T15:44:30;10.60;;;5.80;;
68938;SDS011;59064;45.294;11.816;2023-03-01T15:46:58;9.40;;;6.00;;
68938;SDS011;59064;45.294;11.816;2023-03-01T15:52:29;9.30;;;3.70;;
68938;SDS011;59064;45.294;11.816;2023-03-01T15:55:27;9.40;;;4.50;;
68938;SDS011;59064;45.294;11.816;2023-03-01T16:00:36;10.20;;;5.00;;
68938;SDS011;59064;45.294;11.816;2023-03-01T16:03:02;10.30;;;4.50;;
68938;SDS011;59064;45.294;11.816;2023-03-01T16:05:31;10.50;;;4.90;;
68938;SDS011;59064;45.294;11.816;2023-03-01T16:08:00;7.50;;;3.60;;
68938;SDS011;59064;45.294;11.816;2023-03-01T16:10:30;10.60;;;4.40;;
68938;SDS011;59064;45.294;11.816;2023-03-01T16:12:56;7.60;;;3.50;;
68938;SDS011;59064;45.294;11.816;2023-03-01T16:17:50;14.30;;;4.80;;
68938;SDS011;59064;45.294;11.816;2023-03-01T16:20:17;11.00;;;4.40;;
68938;SDS011;59064;45.294;11.816;2023-03-01T16:22:44;12.50;;;5.40;;
68938;SDS011;59064;45.294;11.816;2023-03-01T16:25:12;8.00;;;5.00;;
68938;SDS011;59064;45.294;11.816;2023-03-01T16:27:44;12.60;;;5.90;;
68938;SDS011;59064;45.294;11.816;2023-03-01T16:30:12;12.70;;;5.60;;
68938;SDS011;59064;45.294;11.816;2023-03-01T16:32:40;10.40;;;5.00;;
68938;SDS011;59064;45.294;11.816;2023-03-01T16:35:08;9.00;;;4.50;;
68938;SDS011;59064;45.294;11.816;2023-03-01T16:37:36;6.40;;;3.00;;
68938;SDS011;59064;45.294;11.816;2023-03-01T16:40:09;8.20;;;5.10;;
68938;SDS011;59064;45.294;11.816;2023-03-01T16:42:47;8.10;;;3.90;;
68938;SDS011;59064;45.294;11.816;2023-03-01T16:45:14;5.20;;;2.90;;
68938;SDS011;59064;45.294;11.816;2023-03-01T16:47:39;6.50;;;2.90;;
68938;SDS011;59064;45.294;11.816;2023-03-01T16:50:05;9.50;;;4.40;;
68938;SDS011;59064;45.294;11.816;2023-03-01T16:52:31;7.10;;;4.00;;
68938;SDS011;59064;45.294;11.816;2023-03-01T16:54:58;5.00;;;2.90;;
68938;SDS011;59064;45.294;11.816;2023-03-01T16:57:24;6.60;;;3.70;;
68938;SDS011;59064;45.294;11.816;2023-03-01T16:59:53;7.30;;;3.90;;
68938;SDS011;59064;45.294;11.816;2023-03-01T17:02:18;8.60;;;3.00;;
68938;SDS011;59064;45.294;11.816;2023-03-01T17:04:45;6.00;;;3.30;;
68938;SDS011;59064;45.294;11.816;2023-03-01T17:07:17;5.70;;;3.50;;
68938;SDS011;59064;45.294;11.816;2023-03-01T17:09:43;11.10;;;4.80;;
68938;SDS011;59064;45.294;11.816;2023-03-01T17:12:11;7.10;;;3.90;;